»·PEaware :: QXE2407 KPDX-KSEA

QXE2407 :: KPDX-KSEA

FLIGHT INFORMATION

Flight Status: Arrived
Operator:
Horizon Air
More flights by this operator :: More flights under this callsign
Pilot: Charles D. (23067)
Aircraft: EMBRAER EMB-170/175
(E170)
More flights by this aircraft type
Origin: KPDX Portland Intl
United States
Destination: KSEA Seattle-Tacoma Intl
United States
More flights between these airports :: More routes between these airports
Route: COUGA KRIEG HAWKZ7
File this flight plan on PilotEdge
Remarks: RMK / SIMBRIEF
Altitude:
(Current/Filed)
22,000ft
Speed:
(Current/Filed)
422kts
Departed: 22-Jun-19 08:57 AM
Arrived: 22-Jun-19 09:33 AM
Distance/Time
Traveled:
112nm/0:36
Distance/Time
To Go:
Arrived

Flight Plot

Page will automatically refresh every two minutes.

Flight plan parsing failed; only flown route is shown


Map Options




Map Legend


Flown Route
Filed Route
Departure Airport
Arrival Airport
Navaid (VOR, NDB)
Fix

Horizontal Profiles

Position Reports

Time Latitude Longitude Heading Altitude Ground
Speed
22-Jun-19 08:46 45.587790 -122.594832 11 31ft 0kts
22-Jun-19 08:47 45.587790 -122.594832 11 31ft 0kts
22-Jun-19 08:48 45.587790 -122.594832 11 31ft 0kts
22-Jun-19 08:49 45.587790 -122.594832 12 31ft 0kts
22-Jun-19 08:50 45.587735 -122.594849 11 31ft 4kts
22-Jun-19 08:51 45.586867 -122.594750 281 31ft 0kts
22-Jun-19 08:52 45.586867 -122.594752 281 31ft 0kts
22-Jun-19 08:53 45.589582 -122.601890 298 31ft 21kts
22-Jun-19 08:54 45.592715 -122.610424 298 31ft 26kts
22-Jun-19 08:55 45.595431 -122.617375 299 31ft 13kts
22-Jun-19 08:56 45.591767 -122.612715 118 36ft 162kts
22-Jun-19 08:57 45.561907 -122.524191 110 2804ft 287kts
22-Jun-19 08:58 45.530476 -122.428393 115 4997ft 284kts
22-Jun-19 08:59 45.523264 -122.324265 44 5992ft 308kts
22-Jun-19 09:00 45.596783 -122.322982 336 5975ft 267kts
22-Jun-19 09:01 45.661213 -122.367854 333 7234ft 260kts
22-Jun-19 09:02 45.731803 -122.418212 333 10705ft 320kts
22-Jun-19 09:03 45.816430 -122.478758 333 14125ft 353kts
22-Jun-19 09:04 45.903660 -122.541392 333 17491ft 353kts
22-Jun-19 09:05 45.993546 -122.606165 333 20885ft 375kts
22-Jun-19 09:06 46.089085 -122.673924 341 22286ft 384kts
22-Jun-19 09:07 46.194834 -122.697514 350 22332ft 385kts
22-Jun-19 09:08 46.300492 -122.718319 350 22331ft 385kts
22-Jun-19 09:09 46.406107 -122.725237 356 21520ft 361kts
22-Jun-19 09:10 46.500715 -122.728687 356 20082ft 331kts
22-Jun-19 09:11 46.592419 -122.732002 356 18682ft 329kts
22-Jun-19 09:12 46.683026 -122.735282 356 17273ft 324kts
22-Jun-19 09:13 46.772547 -122.737744 5 15838ft 321kts
22-Jun-19 09:14 46.846700 -122.665576 34 14453ft 323kts
22-Jun-19 09:15 46.915680 -122.587184 35 13015ft 300kts
22-Jun-19 09:16 46.987887 -122.540364 14 12009ft 285kts
22-Jun-19 09:17 47.064115 -122.506873 13 11469ft 286kts
22-Jun-19 09:18 47.141240 -122.489037 4 10905ft 283kts
22-Jun-19 09:19 47.218092 -122.475822 2 10328ft 267kts
22-Jun-19 09:20 47.289424 -122.464938 2 9748ft 258kts
22-Jun-19 09:21 47.360660 -122.455145 356 9051ft 252kts
22-Jun-19 09:22 47.427226 -122.455334 356 7507ft 238kts
22-Jun-19 09:23 47.492899 -122.455371 357 5941ft 235kts
22-Jun-19 09:24 47.558039 -122.456236 357 4416ft 243kts
22-Jun-19 09:25 47.611640 -122.438898 54 3666ft 225kts
22-Jun-19 09:26 47.638304 -122.382853 55 2998ft 213kts
22-Jun-19 09:27 47.629536 -122.324152 145 3001ft 205kts
22-Jun-19 09:29 47.586482 -122.306594 181 2824ft 193kts
22-Jun-19 09:30 47.527556 -122.307214 181 1747ft 157kts
22-Jun-19 09:31 47.487606 -122.307320 180 893ft 107kts
22-Jun-19 09:32 47.456051 -122.307813 181 441ft 65kts
22-Jun-19 09:33 47.451477 -122.306263 176 441ft 16kts
22-Jun-19 09:34 47.447259 -122.303219 128 441ft 20kts
22-Jun-19 09:35 47.445919 -122.300787 152 441ft 0kts
22-Jun-19 09:36 47.445919 -122.300787 152 441ft 0kts
22-Jun-19 09:37 47.445919 -122.300787 152 441ft 0kts
22-Jun-19 09:38 47.445919 -122.300787 152 441ft 0kts
22-Jun-19 09:39 47.445919 -122.300787 152 441ft 0kts
22-Jun-19 09:40 47.445919 -122.300787 152 441ft 0kts
22-Jun-19 09:41 47.445919 -122.300787 152 441ft 0kts
22-Jun-19 09:42 47.445919 -122.300787 152 441ft 0kts
22-Jun-19 09:43 47.445919 -122.300787 152 441ft 0kts
22-Jun-19 09:44 47.445919 -122.300787 152 441ft 0kts
22-Jun-19 09:44 47.445919 -122.300787 152 441ft 0kts
22-Jun-19 09:46 47.445919 -122.300787 152 441ft 0kts
22-Jun-19 09:47 47.445919 -122.300787 152 441ft 0kts

Navigation Log

Ident Type
Flight plan parsing failed, navigation log unavailable